APG524 RPMD-RPVM
Flight info
| Callsign | APG524 |
|---|---|
| Flight time | 0h 37m |
| Altitude | 24000 |
| Route | JOFER3R JOFER W8 BOHOL BOHOL3P |
| Aircraft | A320/M-SDE3FGHIRWY/LB1 |
Departure
| Time | 2026-04-27 18:31 |
|---|---|
| Airport | Francisco Bangoy International Airport (RPMD) |
Arrival
| Time | 2026-04-27 19:09 |
|---|---|
| Airport | Mactan Cebu International Airport (RPVM) |
| Time | Latitude | Longitude | Altitude | Speed | Heading |
|---|---|---|---|---|---|
| 2026-04-27 18:04 | 7.12993 | 125.64596 | 101 ft | 0 kts | 320° |
| 2026-04-27 18:16 | 7.12977 | 125.64609 | 100 ft | 4 kts | 318° |
| 2026-04-27 18:16 | 7.12958 | 125.64628 | 101 ft | 4 kts | 312° |
| 2026-04-27 18:16 | 7.12941 | 125.64649 | 100 ft | 4 kts | 297° |
| 2026-04-27 18:17 | 7.12935 | 125.64672 | 100 ft | 4 kts | 247° |
| 2026-04-27 18:17 | 7.12937 | 125.64678 | 101 ft | 0 kts | 229° |
| 2026-04-27 18:18 | 7.12933 | 125.64673 | 101 ft | 0 kts | 229° |
| 2026-04-27 18:22 | 7.12932 | 125.64672 | 101 ft | 2 kts | 229° |
| 2026-04-27 18:22 | 7.12919 | 125.64656 | 100 ft | 3 kts | 230° |
| 2026-04-27 18:23 | 7.12908 | 125.64643 | 101 ft | 2 kts | 229° |
| 2026-04-27 18:23 | 7.12902 | 125.64636 | 101 ft | 1 kts | 229° |
| 2026-04-27 18:23 | 7.12879 | 125.64609 | 101 ft | 10 kts | 229° |
| 2026-04-27 18:23 | 7.12837 | 125.64560 | 101 ft | 8 kts | 229° |
| 2026-04-27 18:24 | 7.12802 | 125.64519 | 101 ft | 7 kts | 229° |
| 2026-04-27 18:24 | 7.12772 | 125.64485 | 101 ft | 6 kts | 229° |
| 2026-04-27 18:24 | 7.12748 | 125.64458 | 101 ft | 5 kts | 228° |
| 2026-04-27 18:24 | 7.12729 | 125.64445 | 101 ft | 6 kts | 203° |
| 2026-04-27 18:25 | 7.12678 | 125.64460 | 101 ft | 10 kts | 137° |
| 2026-04-27 18:25 | 7.12616 | 125.64513 | 101 ft | 11 kts | 140° |
| 2026-04-27 18:25 | 7.12553 | 125.64552 | 100 ft | 10 kts | 168° |
| 2026-04-27 18:25 | 7.12503 | 125.64519 | 101 ft | 9 kts | 233° |
| 2026-04-27 18:26 | 7.12467 | 125.64475 | 99 ft | 8 kts | 229° |
| 2026-04-27 18:26 | 7.12434 | 125.64437 | 99 ft | 6 kts | 229° |
| 2026-04-27 18:26 | 7.12409 | 125.64407 | 102 ft | 5 kts | 230° |
| 2026-04-27 18:26 | 7.12369 | 125.64362 | 100 ft | 13 kts | 228° |
| 2026-04-27 18:27 | 7.12292 | 125.64271 | 101 ft | 20 kts | 229° |
| 2026-04-27 18:27 | 7.12209 | 125.64175 | 101 ft | 12 kts | 229° |
| 2026-04-27 18:27 | 7.12160 | 125.64119 | 102 ft | 10 kts | 229° |
| 2026-04-27 18:27 | 7.12121 | 125.64074 | 102 ft | 7 kts | 229° |
| 2026-04-27 18:28 | 7.12092 | 125.64040 | 103 ft | 6 kts | 229° |
| 2026-04-27 18:28 | 7.12060 | 125.64003 | 102 ft | 8 kts | 229° |
| 2026-04-27 18:28 | 7.12013 | 125.63948 | 102 ft | 13 kts | 229° |
| 2026-04-27 18:28 | 7.11946 | 125.63871 | 102 ft | 17 kts | 229° |
| 2026-04-27 18:29 | 7.11862 | 125.63773 | 101 ft | 20 kts | 229° |
| 2026-04-27 18:29 | 7.11764 | 125.63660 | 101 ft | 20 kts | 230° |
| 2026-04-27 18:29 | 7.11750 | 125.63556 | 100 ft | 14 kts | 247° |
| 2026-04-27 18:29 | 7.11690 | 125.63551 | 100 ft | 10 kts | 108° |
| 2026-04-27 18:30 | 7.11708 | 125.63595 | 100 ft | 0 kts | 48° |
| 2026-04-27 18:30 | 7.11773 | 125.63669 | 102 ft | 44 kts | 48° |
| 2026-04-27 18:30 | 7.12132 | 125.64086 | 102 ft | 110 kts | 49° |
| 2026-04-27 18:31 | 7.12759 | 125.64810 | 107 ft | 161 kts | 48° |
| 2026-04-27 18:31 | 7.13503 | 125.65674 | 575 ft | 169 kts | 47° |
| 2026-04-27 18:31 | 7.14319 | 125.66568 | 1156 ft | 177 kts | 43° |
| 2026-04-27 18:31 | 7.15325 | 125.67247 | 1918 ft | 169 kts | 16° |
| 2026-04-27 18:32 | 7.16456 | 125.67346 | 2602 ft | 164 kts | 357° |
| 2026-04-27 18:32 | 7.17664 | 125.67211 | 2872 ft | 187 kts | 353° |
| 2026-04-27 18:32 | 7.19025 | 125.67013 | 3179 ft | 208 kts | 351° |
| 2026-04-27 18:32 | 7.20504 | 125.66707 | 3488 ft | 232 kts | 348° |
| 2026-04-27 18:33 | 7.22181 | 125.66325 | 3836 ft | 256 kts | 348° |
| 2026-04-27 18:33 | 7.23939 | 125.65946 | 4430 ft | 267 kts | 349° |
| 2026-04-27 18:33 | 7.25789 | 125.65585 | 5203 ft | 273 kts | 351° |
| 2026-04-27 18:33 | 7.27672 | 125.65250 | 5987 ft | 277 kts | 352° |
| 2026-04-27 18:34 | 7.29587 | 125.64934 | 6749 ft | 281 kts | 353° |
| 2026-04-27 18:34 | 7.31529 | 125.64626 | 7494 ft | 285 kts | 353° |
| 2026-04-27 18:34 | 7.33496 | 125.64321 | 8250 ft | 288 kts | 354° |
| 2026-04-27 18:34 | 7.35495 | 125.64018 | 8997 ft | 292 kts | 354° |
| 2026-04-27 18:35 | 7.37514 | 125.63712 | 9740 ft | 295 kts | 354° |
| 2026-04-27 18:35 | 7.39568 | 125.63401 | 10264 ft | 306 kts | 354° |
| 2026-04-27 18:35 | 7.41747 | 125.63075 | 10523 ft | 325 kts | 354° |
| 2026-04-27 18:35 | 7.44006 | 125.62730 | 11081 ft | 332 kts | 352° |
| 2026-04-27 18:36 | 7.46246 | 125.62066 | 11712 ft | 339 kts | 338° |
| 2026-04-27 18:36 | 7.48306 | 125.60880 | 12351 ft | 345 kts | 325° |
| 2026-04-27 18:36 | 7.50193 | 125.59367 | 13001 ft | 349 kts | 323° |
| 2026-04-27 18:36 | 7.52092 | 125.57833 | 13641 ft | 352 kts | 323° |
| 2026-04-27 18:37 | 7.54010 | 125.56287 | 14207 ft | 355 kts | 323° |
| 2026-04-27 18:37 | 7.55952 | 125.54726 | 14773 ft | 358 kts | 323° |
| 2026-04-27 18:37 | 7.57905 | 125.53159 | 15333 ft | 361 kts | 323° |
| 2026-04-27 18:37 | 7.59875 | 125.51580 | 15891 ft | 363 kts | 323° |
| 2026-04-27 18:38 | 7.61861 | 125.49991 | 16439 ft | 366 kts | 322° |
| 2026-04-27 18:38 | 7.63863 | 125.48389 | 16977 ft | 369 kts | 322° |
| 2026-04-27 18:38 | 7.65886 | 125.46769 | 17515 ft | 372 kts | 322° |
| 2026-04-27 18:38 | 7.67917 | 125.45139 | 18043 ft | 375 kts | 322° |
| 2026-04-27 18:39 | 7.69968 | 125.43491 | 18505 ft | 378 kts | 322° |
| 2026-04-27 18:39 | 7.72031 | 125.41834 | 18946 ft | 381 kts | 322° |
| 2026-04-27 18:39 | 7.74109 | 125.40163 | 19406 ft | 383 kts | 322° |
| 2026-04-27 18:39 | 7.76205 | 125.38477 | 19861 ft | 386 kts | 322° |
| 2026-04-27 18:40 | 7.78307 | 125.36786 | 20328 ft | 388 kts | 322° |
| 2026-04-27 18:40 | 7.80422 | 125.35083 | 20780 ft | 391 kts | 322° |
| 2026-04-27 18:40 | 7.82552 | 125.33368 | 21225 ft | 393 kts | 322° |
| 2026-04-27 18:40 | 7.84703 | 125.31640 | 21709 ft | 395 kts | 322° |
| 2026-04-27 18:41 | 7.86860 | 125.29909 | 22159 ft | 398 kts | 322° |
| 2026-04-27 18:41 | 7.89031 | 125.28166 | 22605 ft | 400 kts | 322° |
| 2026-04-27 18:41 | 7.91214 | 125.26407 | 23050 ft | 403 kts | 322° |
| 2026-04-27 18:41 | 7.93411 | 125.24635 | 23502 ft | 406 kts | 322° |
| 2026-04-27 18:42 | 7.95635 | 125.22846 | 23813 ft | 409 kts | 322° |
| 2026-04-27 18:42 | 7.97162 | 125.21740 | 23881 ft | 409 kts | 329° |
| 2026-04-27 18:42 | 8.00413 | 125.19994 | 23922 ft | 388 kts | 334° |
| 2026-04-27 18:42 | 8.02767 | 125.18767 | 23924 ft | 375 kts | 334° |
| 2026-04-27 18:43 | 8.05074 | 125.17570 | 23925 ft | 372 kts | 334° |
| 2026-04-27 18:43 | 8.07368 | 125.16379 | 23930 ft | 371 kts | 334° |
| 2026-04-27 18:43 | 8.09664 | 125.15187 | 23931 ft | 371 kts | 333° |
| 2026-04-27 18:43 | 8.11982 | 125.13983 | 23937 ft | 380 kts | 333° |
| 2026-04-27 18:44 | 8.14379 | 125.12739 | 23937 ft | 395 kts | 334° |
| 2026-04-27 18:44 | 8.16869 | 125.11445 | 23936 ft | 410 kts | 333° |
| 2026-04-27 18:44 | 8.19437 | 125.10107 | 23937 ft | 420 kts | 334° |
| 2026-04-27 18:44 | 8.22047 | 125.08744 | 23936 ft | 422 kts | 334° |
| 2026-04-27 18:45 | 8.24656 | 125.07378 | 23937 ft | 423 kts | 334° |
| 2026-04-27 18:45 | 8.27266 | 125.06014 | 23936 ft | 423 kts | 334° |
| 2026-04-27 18:45 | 8.29909 | 125.04634 | 23937 ft | 434 kts | 334° |
| 2026-04-27 18:45 | 8.32628 | 125.03217 | 23922 ft | 446 kts | 333° |
| 2026-04-27 18:46 | 8.35421 | 125.01762 | 23923 ft | 456 kts | 334° |
| 2026-04-27 18:46 | 8.38261 | 125.00281 | 23923 ft | 464 kts | 334° |
| 2026-04-27 18:46 | 8.41149 | 124.98775 | 23923 ft | 471 kts | 333° |
| 2026-04-27 18:46 | 8.44078 | 124.97245 | 23923 ft | 477 kts | 333° |
| 2026-04-27 18:47 | 8.47053 | 124.95692 | 23912 ft | 483 kts | 333° |
| 2026-04-27 18:47 | 8.50050 | 124.94128 | 23912 ft | 487 kts | 333° |
| 2026-04-27 18:47 | 8.53065 | 124.92552 | 23898 ft | 489 kts | 333° |
| 2026-04-27 18:47 | 8.56086 | 124.90972 | 23898 ft | 489 kts | 333° |
| 2026-04-27 18:48 | 8.59108 | 124.89390 | 23892 ft | 490 kts | 333° |
| 2026-04-27 18:48 | 8.62140 | 124.87804 | 23890 ft | 490 kts | 333° |
| 2026-04-27 18:48 | 8.65163 | 124.86223 | 23890 ft | 490 kts | 333° |
| 2026-04-27 18:48 | 8.68149 | 124.84661 | 23890 ft | 490 kts | 333° |
| 2026-04-27 18:49 | 8.71210 | 124.83061 | 23862 ft | 490 kts | 333° |
| 2026-04-27 18:49 | 8.74235 | 124.81481 | 23862 ft | 490 kts | 333° |
| 2026-04-27 18:49 | 8.77271 | 124.79894 | 23864 ft | 490 kts | 333° |
| 2026-04-27 18:49 | 8.80258 | 124.78333 | 23862 ft | 490 kts | 334° |
| 2026-04-27 18:50 | 8.83282 | 124.76751 | 23862 ft | 490 kts | 334° |
| 2026-04-27 18:50 | 8.86306 | 124.75168 | 23854 ft | 490 kts | 333° |
| 2026-04-27 18:50 | 8.89331 | 124.73583 | 23851 ft | 490 kts | 333° |
| 2026-04-27 18:50 | 8.92355 | 124.71995 | 23844 ft | 490 kts | 333° |
| 2026-04-27 18:51 | 8.95385 | 124.70403 | 23845 ft | 490 kts | 333° |
| 2026-04-27 18:51 | 8.98408 | 124.68817 | 23842 ft | 490 kts | 333° |
| 2026-04-27 18:51 | 9.01429 | 124.67235 | 23843 ft | 489 kts | 333° |
| 2026-04-27 18:51 | 9.04451 | 124.65653 | 23842 ft | 489 kts | 333° |
| 2026-04-27 18:52 | 9.07483 | 124.64066 | 23838 ft | 490 kts | 333° |
| 2026-04-27 18:52 | 9.10506 | 124.62483 | 23833 ft | 490 kts | 333° |
| 2026-04-27 18:52 | 9.13532 | 124.60897 | 23796 ft | 491 kts | 333° |
| 2026-04-27 18:53 | 9.19573 | 124.57727 | 23221 ft | 488 kts | 333° |
| 2026-04-27 18:53 | 9.22584 | 124.56143 | 22962 ft | 485 kts | 333° |
| 2026-04-27 18:53 | 9.25569 | 124.54569 | 22712 ft | 483 kts | 333° |
| 2026-04-27 18:53 | 9.28545 | 124.53005 | 22459 ft | 482 kts | 333° |
| 2026-04-27 18:54 | 9.31514 | 124.51449 | 22206 ft | 480 kts | 333° |
| 2026-04-27 18:54 | 9.34470 | 124.49900 | 21959 ft | 478 kts | 333° |
| 2026-04-27 18:54 | 9.37427 | 124.48352 | 21711 ft | 477 kts | 334° |
| 2026-04-27 18:54 | 9.40369 | 124.46807 | 21476 ft | 476 kts | 333° |
| 2026-04-27 18:55 | 9.43287 | 124.45271 | 21233 ft | 467 kts | 334° |
| 2026-04-27 18:55 | 9.46117 | 124.43777 | 20986 ft | 451 kts | 333° |
| 2026-04-27 18:55 | 9.48863 | 124.42329 | 20773 ft | 436 kts | 333° |
| 2026-04-27 18:55 | 9.51506 | 124.40936 | 20652 ft | 421 kts | 333° |
| 2026-04-27 18:56 | 9.54032 | 124.39608 | 20534 ft | 407 kts | 334° |
| 2026-04-27 18:56 | 9.56486 | 124.38281 | 20414 ft | 395 kts | 330° |
| 2026-04-27 18:56 | 9.58629 | 124.36594 | 20161 ft | 388 kts | 319° |
| 2026-04-27 18:56 | 9.60620 | 124.34706 | 19775 ft | 384 kts | 318° |
| 2026-04-27 18:57 | 9.62531 | 124.32878 | 19390 ft | 381 kts | 318° |
| 2026-04-27 18:57 | 9.64449 | 124.31037 | 18990 ft | 379 kts | 319° |
| 2026-04-27 18:57 | 9.66354 | 124.29209 | 18590 ft | 376 kts | 319° |
| 2026-04-27 18:57 | 9.68250 | 124.27395 | 18205 ft | 374 kts | 319° |
| 2026-04-27 18:58 | 9.70132 | 124.25598 | 17877 ft | 368 kts | 318° |
| 2026-04-27 18:58 | 9.71394 | 124.24395 | 17528 ft | 368 kts | 319° |
| 2026-04-27 18:58 | 9.73867 | 124.22042 | 16909 ft | 367 kts | 319° |
| 2026-04-27 18:58 | 9.75721 | 124.20276 | 16537 ft | 364 kts | 318° |
| 2026-04-27 18:59 | 9.77552 | 124.18530 | 16182 ft | 360 kts | 318° |
| 2026-04-27 18:59 | 9.79367 | 124.16796 | 15799 ft | 358 kts | 317° |
| 2026-04-27 18:59 | 9.81176 | 124.15067 | 15415 ft | 355 kts | 317° |
| 2026-04-27 18:59 | 9.82967 | 124.13357 | 15040 ft | 353 kts | 317° |
| 2026-04-27 19:00 | 9.84751 | 124.11654 | 14662 ft | 351 kts | 317° |
| 2026-04-27 19:00 | 9.86519 | 124.09967 | 14285 ft | 349 kts | 317° |
| 2026-04-27 19:00 | 9.88285 | 124.08281 | 13919 ft | 347 kts | 317° |
| 2026-04-27 19:00 | 9.90034 | 124.06608 | 13544 ft | 345 kts | 317° |
| 2026-04-27 19:01 | 9.91772 | 124.04945 | 13133 ft | 343 kts | 317° |
| 2026-04-27 19:01 | 9.93500 | 124.03292 | 12708 ft | 341 kts | 317° |
| 2026-04-27 19:01 | 9.95251 | 124.01622 | 11847 ft | 352 kts | 317° |
| 2026-04-27 19:01 | 9.97069 | 123.99888 | 10942 ft | 362 kts | 318° |
| 2026-04-27 19:02 | 9.98893 | 123.98149 | 10054 ft | 358 kts | 318° |
| 2026-04-27 19:02 | 10.00695 | 123.96426 | 9139 ft | 354 kts | 318° |
| 2026-04-27 19:02 | 10.02471 | 123.94725 | 8237 ft | 349 kts | 317° |
| 2026-04-27 19:02 | 10.04202 | 123.93062 | 7692 ft | 334 kts | 318° |
| 2026-04-27 19:03 | 10.05850 | 123.91479 | 7222 ft | 319 kts | 318° |
| 2026-04-27 19:03 | 10.07429 | 123.89963 | 6763 ft | 307 kts | 318° |
| 2026-04-27 19:03 | 10.08933 | 123.88484 | 6285 ft | 296 kts | 317° |
| 2026-04-27 19:03 | 10.09895 | 123.87514 | 5953 ft | 290 kts | 316° |
| 2026-04-27 19:04 | 10.11757 | 123.85611 | 5332 ft | 278 kts | 316° |
| 2026-04-27 19:04 | 10.13121 | 123.84271 | 5013 ft | 267 kts | 325° |
| 2026-04-27 19:04 | 10.14755 | 123.83566 | 4608 ft | 251 kts | 358° |
| 2026-04-27 19:04 | 10.16422 | 123.83831 | 4068 ft | 240 kts | 30° |
| 2026-04-27 19:05 | 10.17700 | 123.84832 | 3625 ft | 229 kts | 48° |
| 2026-04-27 19:05 | 10.18816 | 123.85961 | 3216 ft | 223 kts | 48° |
| 2026-04-27 19:05 | 10.19905 | 123.87054 | 2810 ft | 218 kts | 47° |
| 2026-04-27 19:05 | 10.20955 | 123.88105 | 2426 ft | 211 kts | 46° |
| 2026-04-27 19:06 | 10.21968 | 123.89118 | 2143 ft | 199 kts | 47° |
| 2026-04-27 19:06 | 10.22948 | 123.90100 | 1947 ft | 193 kts | 46° |
| 2026-04-27 19:06 | 10.23899 | 123.91052 | 1768 ft | 189 kts | 46° |
| 2026-04-27 19:06 | 10.24794 | 123.91951 | 1486 ft | 178 kts | 46° |
| 2026-04-27 19:07 | 10.25635 | 123.92808 | 1243 ft | 164 kts | 47° |
| 2026-04-27 19:07 | 10.26398 | 123.93576 | 1025 ft | 149 kts | 45° |
| 2026-04-27 19:07 | 10.27113 | 123.94294 | 813 ft | 138 kts | 45° |
| 2026-04-27 19:07 | 10.27773 | 123.94965 | 571 ft | 131 kts | 46° |
| 2026-04-27 19:08 | 10.28450 | 123.95637 | 405 ft | 142 kts | 45° |
| 2026-04-27 19:08 | 10.29160 | 123.96346 | 279 ft | 141 kts | 44° |
| 2026-04-27 19:08 | 10.29839 | 123.97026 | 74 ft | 133 kts | 44° |
| 2026-04-27 19:08 | 10.30440 | 123.97626 | 38 ft | 102 kts | 44° |
| 2026-04-27 19:09 | 10.30825 | 123.98012 | 35 ft | 57 kts | 45° |
| 2026-04-27 19:09 | 10.31048 | 123.98235 | 36 ft | 37 kts | 44° |
| 2026-04-27 19:09 | 10.31222 | 123.98324 | 38 ft | 21 kts | 20° |
| 2026-04-27 19:09 | 10.31311 | 123.98343 | 37 ft | 1 kts | 1° |
| 2026-04-27 19:10 | 10.31319 | 123.98344 | 37 ft | 1 kts | 1° |
| 2026-04-27 19:10 | 10.31326 | 123.98344 | 37 ft | 1 kts | 1° |
| 2026-04-27 19:10 | 10.31332 | 123.98343 | 37 ft | 1 kts | 359° |
| 2026-04-27 19:10 | 10.31335 | 123.98343 | 37 ft | 1 kts | 359° |
| 2026-04-27 19:11 | 10.31357 | 123.98341 | 37 ft | 7 kts | 351° |
| 2026-04-27 19:11 | 10.31391 | 123.98318 | 37 ft | 6 kts | 314° |
| 2026-04-27 19:11 | 10.31416 | 123.98292 | 37 ft | 5 kts | 314° |
| 2026-04-27 19:11 | 10.31435 | 123.98272 | 37 ft | 3 kts | 314° |
| 2026-04-27 19:12 | 10.31448 | 123.98256 | 37 ft | 2 kts | 296° |
| 2026-04-27 19:12 | 10.31449 | 123.98243 | 36 ft | 1 kts | 269° |
| 2026-04-27 19:12 | 10.31447 | 123.98238 | 37 ft | 0 kts | 261° |
| 2026-04-27 19:12 | 10.31434 | 123.98217 | 35 ft | 7 kts | 228° |
| 2026-04-27 19:13 | 10.31399 | 123.98181 | 37 ft | 7 kts | 224° |
| 2026-04-27 19:13 | 10.31369 | 123.98152 | 37 ft | 5 kts | 224° |
| 2026-04-27 19:13 | 10.31345 | 123.98127 | 37 ft | 4 kts | 225° |
| 2026-04-27 19:13 | 10.31325 | 123.98107 | 37 ft | 4 kts | 225° |
| 2026-04-27 19:14 | 10.31310 | 123.98092 | 35 ft | 3 kts | 225° |
| 2026-04-27 19:14 | 10.31299 | 123.98081 | 36 ft | 2 kts | 224° |
| 2026-04-27 19:14 | 10.31293 | 123.98074 | 37 ft | 1 kts | 224° |
| 2026-04-27 19:14 | 10.31275 | 123.98057 | 36 ft | 8 kts | 224° |
| 2026-04-27 19:15 | 10.31214 | 123.97996 | 37 ft | 16 kts | 224° |
| 2026-04-27 19:15 | 10.31166 | 123.97949 | 35 ft | 15 kts | 224° |
| 2026-04-27 19:15 | 10.31079 | 123.97861 | 37 ft | 17 kts | 224° |
| 2026-04-27 19:15 | 10.31022 | 123.97775 | 37 ft | 12 kts | 285° |
| 2026-04-27 19:16 | 10.31067 | 123.97723 | 37 ft | 9 kts | 314° |
| 2026-04-27 19:16 | 10.31093 | 123.97696 | 37 ft | 8 kts | 314° |
| 2026-04-27 19:16 | 10.31128 | 123.97708 | 34 ft | 4 kts | 61° |
| 2026-04-27 19:16 | 10.31143 | 123.97725 | 35 ft | 3 kts | 46° |
| 2026-04-27 19:17 | 10.31146 | 123.97728 | 37 ft | 0 kts | 45° |
| 2026-04-27 19:23 | 10.31147 | 123.97729 | 37 ft | 0 kts | 45° |
| 2026-04-27 19:23 | 10.31148 | 123.97730 | 37 ft | 0 kts | 45° |
| 2026-04-27 19:23 | 10.31150 | 123.97732 | 37 ft | 0 kts | 45° |
| 2026-04-27 19:23 | 10.31152 | 123.97734 | 37 ft | 0 kts | 45° |